Time;durP1;ratioP1;P1;durP2;ratioP2;P2;SDS_P1;SDS_P2;PMS_P1;PMS_P2;Temp;Humidity;BMP_temperature;BMP_pressure;BME280_temperature;BME280_humidity;BME280_pressure;Samples;Min_cycle;Max_cycle;Signal;HPM_P1;HPM_P2
2022/01/16 00:04:34;;;;;;;8.38;4.63;;;;;;;;;;7384548;19;20027;-73
2022/01/16 00:07:03;;;;;;;11.07;4.78;;;;;;;;;;7383208;19;20042;-73
2022/01/16 00:09:29;;;;;;;9.75;5.18;;;;;;;;;;7381183;19;20033;-73
2022/01/16 00:11:58;;;;;;;11.15;5.80;;;;;;;;;;7383646;19;20461;-73
2022/01/16 00:14:25;;;;;;;13.13;6.13;;;;;;;;;;7382169;19;19998;-73
2022/01/16 00:16:51;;;;;;;10.38;4.82;;;;;;;;;;7383995;19;20017;-73
2022/01/16 00:19:16;;;;;;;10.40;5.15;;;;;;;;;;7380811;19;20062;-73
2022/01/16 00:21:42;;;;;;;11.00;5.53;;;;;;;;;;7384799;19;20031;-73
2022/01/16 00:24:09;;;;;;;10.68;4.65;;;;;;;;;;7379014;19;20034;-73
2022/01/16 00:26:36;;;;;;;13.52;5.95;;;;;;;;;;7383763;19;20041;-73
2022/01/16 00:29:02;;;;;;;11.98;5.40;;;;;;;;;;7382567;19;20418;-73
2022/01/16 00:31:27;;;;;;;10.73;4.95;;;;;;;;;;7379610;19;20070;-73
2022/01/16 00:33:53;;;;;;;10.38;5.30;;;;;;;;;;7383854;19;20040;-73
2022/01/16 00:36:19;;;;;;;10.60;5.25;;;;;;;;;;7381758;19;20579;-73
2022/01/16 00:38:46;;;;;;;11.57;5.72;;;;;;;;;;7386675;19;20016;-73
2022/01/16 00:41:13;;;;;;;10.93;5.47;;;;;;;;;;7387491;19;20182;-73
2022/01/16 00:43:40;;;;;;;25.77;7.82;;;;;;;;;;7389026;19;20009;-73
2022/01/16 00:46:05;;;;;;;13.23;6.05;;;;;;;;;;7387385;19;20006;-73
2022/01/16 00:48:30;;;;;;;13.07;5.57;;;;;;;;;;7388370;19;20003;-73
2022/01/16 00:50:56;;;;;;;9.80;4.50;;;;;;;;;;7386223;19;20011;-73
2022/01/16 00:53:21;;;;;;;9.23;5.30;;;;;;;;;;7389270;19;20002;-73
2022/01/16 00:55:46;;;;;;;10.07;5.18;;;;;;;;;;7387168;19;20018;-73
2022/01/16 00:58:11;;;;;;;11.80;5.82;;;;;;;;;;7388283;19;20026;-73
2022/01/16 01:00:37;;;;;;;9.68;4.20;;;;;;;;;;7383864;19;20021;-73
2022/01/16 01:03:05;;;;;;;10.55;5.05;;;;;;;;;;7390901;19;20314;-73
2022/01/16 01:05:31;;;;;;;10.43;4.32;;;;;;;;;;7389863;19;20009;-73
2022/01/16 01:07:56;;;;;;;11.18;6.03;;;;;;;;;;7385562;19;20021;-73
2022/01/16 01:10:30;;;;;;;12.77;5.68;;;;;;;;;;7384993;19;20006;-73
2022/01/16 01:13:07;;;;;;;9.75;4.25;;;;;;;;;;7389734;19;20018;-73
2022/01/16 01:15:41;;;;;;;9.40;4.55;;;;;;;;;;7385890;19;20042;-73
2022/01/16 01:18:06;;;;;;;9.02;4.03;;;;;;;;;;7387016;19;20007;-73
2022/01/16 01:20:31;;;;;;;9.82;4.63;;;;;;;;;;7385487;19;20017;-73
2022/01/16 01:22:57;;;;;;;10.32;5.22;;;;;;;;;;7390201;19;20002;-73
2022/01/16 01:25:23;;;;;;;10.95;4.15;;;;;;;;;;7387026;19;20014;-73
2022/01/16 01:27:49;;;;;;;8.98;4.28;;;;;;;;;;7388742;19;20440;-73
2022/01/16 01:30:17;;;;;;;7.90;4.20;;;;;;;;;;7384314;19;20091;-73
2022/01/16 01:32:44;;;;;;;10.52;5.28;;;;;;;;;;7388674;19;20426;-73
2022/01/16 01:35:13;;;;;;;15.00;6.38;;;;;;;;;;7385567;19;20476;-73
2022/01/16 01:37:39;;;;;;;11.98;5.60;;;;;;;;;;7389520;19;20050;-73
2022/01/16 01:40:07;;;;;;;17.55;6.15;;;;;;;;;;7386304;19;19986;-73
2022/01/16 01:42:41;;;;;;;13.48;5.75;;;;;;;;;;7386931;19;20957;-73
2022/01/16 01:53:19;;;;;;;11.48;5.43;;;;;;;;;;7389014;19;20014;-73
2022/01/16 01:55:45;;;;;;;12.48;5.45;;;;;;;;;;7387855;19;20007;-73
2022/01/16 01:58:11;;;;;;;12.27;5.82;;;;;;;;;;7386931;19;20010;-73
2022/01/16 02:00:40;;;;;;;14.48;5.18;;;;;;;;;;7384185;19;20027;-73
2022/01/16 02:05:49;;;;;;;11.25;5.63;;;;;;;;;;7388584;19;20017;-73
2022/01/16 02:08:15;;;;;;;9.35;4.25;;;;;;;;;;7386364;19;20002;-72
2022/01/16 02:10:41;;;;;;;12.55;5.30;;;;;;;;;;7384818;19;20481;-73
2022/01/16 02:13:10;;;;;;;12.43;5.85;;;;;;;;;;7385171;19;20006;-73
2022/01/16 02:31:37;;;;;;;17.85;5.93;;;;;;;;;;7383145;19;20115;-73
2022/01/16 02:36:50;;;;;;;14.45;5.93;;;;;;;;;;7384544;19;20054;-73
2022/01/16 02:39:16;;;;;;;12.93;5.78;;;;;;;;;;7384442;19;20002;-73
2022/01/16 02:41:43;;;;;;;16.90;6.47;;;;;;;;;;7383848;19;20007;-73
2022/01/16 02:44:18;;;;;;;11.32;5.25;;;;;;;;;;7385227;19;20460;-73
2022/01/16 02:46:44;;;;;;;;;;;;;;;;;;7384673;19;20058;-73
2022/01/16 02:49:28;;;;;;;9.48;4.30;;;;;;;;;;7383303;19;20358;-73
2022/01/16 02:51:59;;;;;;;10.55;4.97;;;;;;;;;;7383475;19;20028;-73
2022/01/16 02:54:26;;;;;;;9.90;4.72;;;;;;;;;;7386285;19;20585;-73
2022/01/16 02:56:52;;;;;;;12.95;5.80;;;;;;;;;;7385231;19;20027;-72
2022/01/16 02:59:18;;;;;;;10.18;5.38;;;;;;;;;;7382973;19;20010;-73
2022/01/16 03:01:44;;;;;;;13.68;6.25;;;;;;;;;;7381472;19;20022;-73
2022/01/16 03:04:09;;;;;;;12.52;5.82;;;;;;;;;;7385123;19;20044;-72
2022/01/16 03:06:35;;;;;;;15.43;6.13;;;;;;;;;;7382036;19;20544;-73
2022/01/16 03:09:01;;;;;;;12.02;6.07;;;;;;;;;;7383814;19;19991;-72
2022/01/16 03:11:35;;;;;;;12.68;5.88;;;;;;;;;;7383435;19;20014;-73
2022/01/16 03:14:02;;;;;;;15.90;6.65;;;;;;;;;;7385662;19;20014;-73
2022/01/16 03:16:28;;;;;;;15.77;6.88;;;;;;;;;;7384361;19;20011;-72
2022/01/16 03:21:57;;;;;;;11.25;5.53;;;;;;;;;;7384953;19;20092;-73
2022/01/16 03:24:25;;;;;;;11.27;5.13;;;;;;;;;;7385175;19;20847;-73
2022/01/16 03:27:13;;;;;;;10.85;5.07;;;;;;;;;;7384438;19;20006;-73
2022/01/16 03:29:40;;;;;;;12.65;5.20;;;;;;;;;;7383085;19;20017;-73
2022/01/16 03:32:08;;;;;;;13.40;6.05;;;;;;;;;;7380875;19;20007;-73
2022/01/16 03:34:34;;;;;;;15.00;6.82;;;;;;;;;;7383622;19;20002;-73
2022/01/16 03:36:59;;;;;;;16.92;6.72;;;;;;;;;;7381468;19;20118;-73
2022/01/16 03:39:24;;;;;;;15.30;7.22;;;;;;;;;;7383919;19;20464;-73
2022/01/16 03:41:50;;;;;;;11.13;5.13;;;;;;;;;;7382894;19;20036;-72
2022/01/16 03:44:17;;;;;;;15.13;7.05;;;;;;;;;;7385649;19;20009;-73
2022/01/16 03:46:43;;;;;;;14.50;6.25;;;;;;;;;;7382108;19;20021;-72
2022/01/16 03:49:16;;;;;;;13.27;6.13;;;;;;;;;;7382996;19;20006;-73
2022/01/16 03:51:44;;;;;;;17.10;7.80;;;;;;;;;;7381828;19;20496;-73
2022/01/16 03:54:12;;;;;;;13.60;6.68;;;;;;;;;;7384569;19;20002;-73
2022/01/16 03:56:38;;;;;;;16.77;6.70;;;;;;;;;;7383119;19;20042;-73
2022/01/16 03:59:04;;;;;;;11.20;5.20;;;;;;;;;;7382844;19;20006;-73
2022/01/16 04:01:29;;;;;;;17.20;6.95;;;;;;;;;;7377697;19;20006;-73
2022/01/16 04:03:55;;;;;;;13.07;6.43;;;;;;;;;;7381076;19;20039;-73
2022/01/16 04:06:22;;;;;;;13.75;6.60;;;;;;;;;;7381605;19;20340;-73
2022/01/16 04:08:49;;;;;;;17.67;6.55;;;;;;;;;;7382513;19;20002;-72
2022/01/16 04:11:15;;;;;;;16.42;7.28;;;;;;;;;;7383202;19;20031;-73
2022/01/16 04:13:49;;;;;;;16.80;6.97;;;;;;;;;;7388397;19;20014;-73
2022/01/16 04:16:15;;;;;;;13.70;6.53;;;;;;;;;;7389752;19;20006;-72
2022/01/16 04:18:40;;;;;;;19.48;7.25;;;;;;;;;;7385300;19;20045;-73
2022/01/16 04:21:06;;;;;;;16.33;7.63;;;;;;;;;;7390200;19;20002;-73
2022/01/16 04:23:31;;;;;;;19.50;8.40;;;;;;;;;;7389432;19;20026;-73
2022/01/16 04:25:56;;;;;;;17.65;7.47;;;;;;;;;;7391117;19;20110;-73
2022/01/16 04:28:24;;;;;;;14.80;6.85;;;;;;;;;;7387170;19;20106;-73
2022/01/16 04:30:50;;;;;;;16.67;7.72;;;;;;;;;;7388747;19;20007;-73
2022/01/16 04:33:16;;;;;;;18.58;8.25;;;;;;;;;;7387691;19;20006;-72
2022/01/16 04:35:41;;;;;;;15.23;7.88;;;;;;;;;;7389300;19;20336;-72
2022/01/16 04:38:06;;;;;;;20.55;9.02;;;;;;;;;;7387559;19;20011;-73
2022/01/16 04:40:41;;;;;;;13.65;7.55;;;;;;;;;;7386678;19;19999;-72
2022/01/16 04:45:50;;;;;;;15.10;7.07;;;;;;;;;;7389207;19;20029;-72
2022/01/16 04:48:16;;;;;;;16.08;7.28;;;;;;;;;;7386321;19;20082;-72
2022/01/16 04:50:41;;;;;;;20.45;8.90;;;;;;;;;;7387153;19;20010;-73
2022/01/16 04:53:06;;;;;;;16.20;8.00;;;;;;;;;;7388601;19;20547;-72
2022/01/16 04:55:31;;;;;;;18.08;7.97;;;;;;;;;;7388037;19;20003;-72
2022/01/16 04:57:57;;;;;;;16.65;8.68;;;;;;;;;;7387707;19;20066;-73
2022/01/16 05:00:22;;;;;;;18.55;9.40;;;;;;;;;;7385489;19;20011;-73
2022/01/16 05:02:48;;;;;;;16.55;8.93;;;;;;;;;;7389110;19;20011;-73
2022/01/16 05:05:13;;;;;;;18.38;9.85;;;;;;;;;;7391301;19;20137;-73
2022/01/16 05:07:39;;;;;;;22.52;10.07;;;;;;;;;;7387180;19;20419;-73
2022/01/16 05:10:06;;;;;;;19.08;9.63;;;;;;;;;;7387297;19;20013;-73
2022/01/16 05:12:37;;;;;;;19.30;9.70;;;;;;;;;;7387182;19;20010;-73
2022/01/16 05:17:47;;;;;;;17.88;8.02;;;;;;;;;;7387565;19;20455;-73
2022/01/16 05:20:13;;;;;;;21.83;9.73;;;;;;;;;;7386082;19;20003;-72
2022/01/16 05:22:38;;;;;;;17.92;9.07;;;;;;;;;;7386789;19;20006;-73
2022/01/16 05:25:11;;;;;;;21.33;9.63;;;;;;;;;;7384700;19;20014;-73
2022/01/16 05:27:36;;;;;;;24.17;11.13;;;;;;;;;;7386796;19;20029;-73
2022/01/16 05:30:02;;;;;;;20.58;10.38;;;;;;;;;;7384316;19;20010;-73
2022/01/16 05:32:27;;;;;;;18.35;9.32;;;;;;;;;;7374995;19;20513;-73
2022/01/16 05:34:53;;;;;;;15.45;8.73;;;;;;;;;;7384563;19;20013;-72
2022/01/16 05:37:18;;;;;;;17.25;8.73;;;;;;;;;;7383611;19;20015;-73
2022/01/16 05:39:45;;;;;;;19.48;8.63;;;;;;;;;;7382759;19;20011;-73
2022/01/16 05:42:12;;;;;;;23.67;10.60;;;;;;;;;;7386829;19;20015;-73
2022/01/16 05:44:38;;;;;;;17.98;8.98;;;;;;;;;;7387182;19;20010;-73
2022/01/16 05:47:05;;;;;;;17.92;8.93;;;;;;;;;;7384440;19;20752;-73
2022/01/16 05:49:30;;;;;;;20.35;8.98;;;;;;;;;;7383078;19;20024;-73
2022/01/16 05:51:55;;;;;;;18.05;8.82;;;;;;;;;;7382183;19;19995;-73
2022/01/16 05:54:21;;;;;;;23.52;10.43;;;;;;;;;;7383687;19;20428;-73
2022/01/16 05:56:46;;;;;;;19.77;9.73;;;;;;;;;;7384438;19;20006;-73
2022/01/16 05:59:11;;;;;;;24.42;11.15;;;;;;;;;;7381939;19;20091;-73
2022/01/16 06:01:36;;;;;;;20.52;10.13;;;;;;;;;;7384483;19;20011;-73
2022/01/16 06:04:02;;;;;;;22.58;10.73;;;;;;;;;;7380820;19;20441;-73
2022/01/16 06:06:28;;;;;;;24.30;11.38;;;;;;;;;;7383604;19;20017;-73
2022/01/16 06:08:53;;;;;;;19.80;10.55;;;;;;;;;;7380719;19;20376;-73
2022/01/16 06:11:18;;;;;;;20.63;9.85;;;;;;;;;;7384148;19;20014;-73
2022/01/16 06:13:43;;;;;;;23.42;11.45;;;;;;;;;;7383551;19;20010;-73
2022/01/16 06:16:09;;;;;;;27.35;11.55;;;;;;;;;;7384306;19;20006;-73
2022/01/16 06:18:34;;;;;;;24.90;10.27;;;;;;;;;;7382560;19;20018;-73
2022/01/16 06:21:00;;;;;;;23.65;10.50;;;;;;;;;;7385476;19;20369;-73
2022/01/16 06:23:25;;;;;;;22.10;10.73;;;;;;;;;;7383555;19;20417;-73
2022/01/16 06:25:54;;;;;;;21.90;10.45;;;;;;;;;;7384144;19;20007;-73
2022/01/16 06:28:23;;;;;;;18.38;9.13;;;;;;;;;;7382780;19;20015;-73
2022/01/16 06:30:49;;;;;;;23.95;10.23;;;;;;;;;;7385423;19;20386;-73
2022/01/16 06:33:15;;;;;;;23.58;10.57;;;;;;;;;;7379032;19;20010;-73
2022/01/16 06:35:40;;;;;;;29.15;13.52;;;;;;;;;;7384941;19;20010;-73
2022/01/16 06:38:05;;;;;;;22.10;10.55;;;;;;;;;;7382893;19;20398;-72
2022/01/16 06:40:31;;;;;;;22.48;11.30;;;;;;;;;;7382049;19;20501;-73
2022/01/16 06:42:56;;;;;;;21.15;10.15;;;;;;;;;;7382537;19;20467;-73
2022/01/16 06:45:22;;;;;;;25.80;10.82;;;;;;;;;;7382250;19;20034;-73
2022/01/16 06:47:47;;;;;;;21.63;11.85;;;;;;;;;;7383458;19;20429;-73
2022/01/16 06:50:13;;;;;;;24.58;11.07;;;;;;;;;;7380103;19;20023;-73
2022/01/16 06:52:38;;;;;;;23.17;11.80;;;;;;;;;;7383015;19;20471;-73
2022/01/16 06:55:04;;;;;;;28.27;12.15;;;;;;;;;;7381370;19;20038;-73
2022/01/16 06:57:29;;;;;;;22.92;10.55;;;;;;;;;;7382492;19;20074;-73
2022/01/16 06:59:54;;;;;;;21.98;10.27;;;;;;;;;;7379091;19;20464;-72
2022/01/16 07:02:22;;;;;;;22.58;11.00;;;;;;;;;;7382958;19;20014;-73
2022/01/16 07:04:48;;;;;;;21.70;10.55;;;;;;;;;;7380617;19;20017;-73
2022/01/16 07:07:13;;;;;;;25.85;11.85;;;;;;;;;;7382945;19;20090;-73
2022/01/16 07:09:39;;;;;;;24.67;11.18;;;;;;;;;;7380267;19;20583;-73
2022/01/16 07:12:05;;;;;;;21.55;11.27;;;;;;;;;;7381749;19;20448;-73
2022/01/16 07:14:31;;;;;;;19.35;9.63;;;;;;;;;;7381291;19;20018;-73
2022/01/16 07:16:56;;;;;;;25.45;11.60;;;;;;;;;;7382534;19;20015;-73
2022/01/16 07:19:21;;;;;;;22.40;10.57;;;;;;;;;;7379776;19;20090;-72
2022/01/16 07:21:47;;;;;;;19.17;9.52;;;;;;;;;;7381294;19;20006;-73
2022/01/16 07:24:15;;;;;;;21.27;10.57;;;;;;;;;;7380545;19;20015;-73
2022/01/16 07:26:44;;;;;;;26.10;11.82;;;;;;;;;;7382562;19;20431;-73
2022/01/16 07:29:09;;;;;;;24.85;10.80;;;;;;;;;;7378310;19;20035;-73
2022/01/16 07:31:38;;;;;;;22.67;10.52;;;;;;;;;;7381991;19;20006;-73
2022/01/16 07:34:04;;;;;;;23.75;10.07;;;;;;;;;;7382539;19;20013;-73
2022/01/16 07:36:29;;;;;;;24.08;11.95;;;;;;;;;;7380566;19;20378;-73
2022/01/16 07:38:54;;;;;;;24.10;11.30;;;;;;;;;;7381031;19;20299;-73
2022/01/16 07:41:19;;;;;;;20.83;10.45;;;;;;;;;;7382282;19;20465;-73
2022/01/16 07:43:45;;;;;;;21.80;11.27;;;;;;;;;;7383049;19;20070;-73
2022/01/16 07:46:10;;;;;;;25.02;10.88;;;;;;;;;;7382359;19;20061;-73
2022/01/16 07:48:35;;;;;;;20.48;10.82;;;;;;;;;;7376739;19;20134;-73
2022/01/16 07:51:01;;;;;;;22.42;10.48;;;;;;;;;;7383491;19;20015;-73
2022/01/16 07:53:26;;;;;;;25.00;11.30;;;;;;;;;;7383940;19;20346;-73
2022/01/16 07:55:51;;;;;;;16.92;9.50;;;;;;;;;;7381605;19;20007;-73
2022/01/16 07:58:17;;;;;;;23.15;11.10;;;;;;;;;;7382713;19;20023;-73
2022/01/16 08:00:42;;;;;;;22.25;12.00;;;;;;;;;;7382495;19;20007;-73
2022/01/16 08:03:07;;;;;;;25.05;12.43;;;;;;;;;;7381934;19;20464;-73
2022/01/16 08:05:34;;;;;;;23.98;11.85;;;;;;;;;;7381414;19;20402;-73
2022/01/16 08:07:59;;;;;;;22.50;10.55;;;;;;;;;;7381679;19;20476;-73
2022/01/16 08:10:25;;;;;;;29.52;14.77;;;;;;;;;;7377090;19;20015;-73
2022/01/16 08:12:50;;;;;;;28.40;12.60;;;;;;;;;;7380129;19;20015;-73
2022/01/16 08:15:15;;;;;;;23.73;12.27;;;;;;;;;;7378285;19;20366;-73
2022/01/16 08:17:41;;;;;;;23.00;12.02;;;;;;;;;;7380512;19;20034;-73
2022/01/16 08:20:08;;;;;;;21.45;10.68;;;;;;;;;;7378934;19;20592;-73
2022/01/16 08:22:34;;;;;;;26.13;11.10;;;;;;;;;;7380159;19;20019;-73
2022/01/16 08:25:00;;;;;;;20.70;10.82;;;;;;;;;;7380065;19;20286;-73
2022/01/16 08:27:25;;;;;;;22.23;11.02;;;;;;;;;;7379166;19;20007;-73
2022/01/16 08:29:51;;;;;;;23.85;11.95;;;;;;;;;;7376547;19;20011;-73
2022/01/16 08:32:16;;;;;;;20.52;10.05;;;;;;;;;;7378815;19;20002;-73
2022/01/16 08:34:42;;;;;;;20.90;10.27;;;;;;;;;;7379569;19;20034;-73
2022/01/16 08:37:07;;;;;;;22.10;11.30;;;;;;;;;;7380092;19;20558;-73
2022/01/16 08:39:32;;;;;;;19.65;9.50;;;;;;;;;;7377001;19;20087;-72
2022/01/16 08:41:58;;;;;;;25.80;12.45;;;;;;;;;;7380929;19;20002;-72
2022/01/16 08:44:23;;;;;;;21.23;11.25;;;;;;;;;;7377812;19;20289;-72
2022/01/16 08:46:48;;;;;;;20.35;10.45;;;;;;;;;;7380473;19;20023;-72
2022/01/16 08:49:14;;;;;;;26.88;12.15;;;;;;;;;;7378004;19;20002;-72
2022/01/16 08:51:39;;;;;;;22.58;11.38;;;;;;;;;;7376921;19;20015;-74
2022/01/16 08:54:05;;;;;;;23.48;12.27;;;;;;;;;;7379223;19;20464;-73
2022/01/16 08:56:30;;;;;;;21.98;11.50;;;;;;;;;;7379434;19;20010;-73
2022/01/16 08:58:56;;;;;;;21.92;11.68;;;;;;;;;;7378687;19;20062;-74
2022/01/16 09:01:21;;;;;;;23.65;11.38;;;;;;;;;;7383861;19;20007;-71
2022/01/16 09:03:47;;;;;;;25.70;12.05;;;;;;;;;;7389391;19;19998;-74
2022/01/16 09:06:12;;;;;;;23.58;12.10;;;;;;;;;;7385685;19;20015;-71
2022/01/16 09:08:38;;;;;;;28.00;12.80;;;;;;;;;;7387597;19;20011;-71
2022/01/16 09:11:04;;;;;;;26.42;13.00;;;;;;;;;;7385651;19;20444;-71
2022/01/16 09:13:30;;;;;;;24.45;11.20;;;;;;;;;;7386533;19;20006;-71
2022/01/16 09:15:56;;;;;;;22.10;11.63;;;;;;;;;;7388307;19;20014;-71
2022/01/16 09:18:22;;;;;;;25.48;11.50;;;;;;;;;;7385852;19;20022;-72
2022/01/16 09:20:48;;;;;;;25.33;11.65;;;;;;;;;;7385733;19;20118;-71
2022/01/16 09:23:13;;;;;;;25.67;12.38;;;;;;;;;;7388133;19;20327;-71
2022/01/16 09:25:39;;;;;;;22.00;10.73;;;;;;;;;;7386764;19;20629;-71
2022/01/16 09:28:05;;;;;;;21.17;11.13;;;;;;;;;;7386378;19;20002;-71
2022/01/16 09:30:30;;;;;;;24.33;11.52;;;;;;;;;;7383148;19;20508;-71
2022/01/16 09:32:56;;;;;;;29.40;13.25;;;;;;;;;;7385602;19;20010;-71
2022/01/16 09:35:22;;;;;;;24.30;12.30;;;;;;;;;;7383422;19;20010;-71
2022/01/16 09:37:48;;;;;;;24.92;12.77;;;;;;;;;;7387698;19;20010;-71
2022/01/16 09:40:16;;;;;;;22.50;11.75;;;;;;;;;;7381424;19;20751;-71
2022/01/16 09:42:42;;;;;;;24.75;12.70;;;;;;;;;;7386205;19;20444;-71
2022/01/16 09:45:10;;;;;;;26.10;13.30;;;;;;;;;;7386951;19;19994;-72
2022/01/16 09:47:36;;;;;;;24.67;12.38;;;;;;;;;;7383766;19;20064;-71
2022/01/16 09:50:04;;;;;;;26.55;12.88;;;;;;;;;;7382545;19;20015;-71
2022/01/16 09:52:38;;;;;;;22.17;10.95;;;;;;;;;;7383682;19;20027;-71
2022/01/16 09:55:05;;;;;;;27.23;12.20;;;;;;;;;;7385399;19;20345;-71
2022/01/16 09:57:30;;;;;;;26.25;12.13;;;;;;;;;;7383262;19;20070;-71
2022/01/16 09:59:55;;;;;;;23.38;11.07;;;;;;;;;;7379631;19;20010;-71
2022/01/16 10:02:21;;;;;;;24.65;12.90;;;;;;;;;;7382741;19;20007;-71
2022/01/16 10:04:46;;;;;;;25.88;12.63;;;;;;;;;;7384836;19;20026;-71
2022/01/16 10:07:15;;;;;;;22.42;11.25;;;;;;;;;;7385214;19;20023;-71
2022/01/16 10:09:45;;;;;;;20.92;10.40;;;;;;;;;;7383266;19;20117;-71
2022/01/16 10:12:16;;;;;;;26.67;13.15;;;;;;;;;;7382236;19;20018;-71
2022/01/16 10:14:48;;;;;;;26.67;12.77;;;;;;;;;;7384812;19;20315;-71
2022/01/16 10:17:19;;;;;;;22.88;11.38;;;;;;;;;;7383785;19;20361;-71
2022/01/16 10:19:45;;;;;;;24.38;12.57;;;;;;;;;;7382549;19;20006;-71
2022/01/16 10:22:13;;;;;;;25.38;12.30;;;;;;;;;;7383672;19;20022;-71
2022/01/16 10:24:39;;;;;;;27.45;12.68;;;;;;;;;;7384393;19;19995;-71
2022/01/16 10:27:08;;;;;;;25.33;12.65;;;;;;;;;;7382826;19;20010;-71
2022/01/16 10:29:56;;;;;;;23.70;11.57;;;;;;;;;;7381039;19;20014;-71
2022/01/16 10:32:27;;;;;;;27.85;13.88;;;;;;;;;;7380470;19;20002;-71
2022/01/16 10:35:08;;;;;;;26.15;13.00;;;;;;;;;;7386054;19;20085;-71
2022/01/16 10:37:34;;;;;;;24.08;12.50;;;;;;;;;;7385400;19;21149;-72
2022/01/16 10:40:03;;;;;;;25.13;13.38;;;;;;;;;;7381550;19;20535;-71
2022/01/16 10:42:30;;;;;;;27.77;13.38;;;;;;;;;;7383733;19;20010;-71
2022/01/16 10:45:15;;;;;;;27.92;12.50;;;;;;;;;;7382711;19;20006;-71
2022/01/16 10:47:51;;;;;;;26.35;12.93;;;;;;;;;;7383295;19;20078;-71
2022/01/16 10:50:22;;;;;;;28.98;14.35;;;;;;;;;;7380609;19;20005;-71
2022/01/16 10:53:03;;;;;;;25.05;12.07;;;;;;;;;;7384264;19;20192;-71
2022/01/16 10:55:37;;;;;;;27.48;13.38;;;;;;;;;;7383186;19;20003;-71
2022/01/16 10:58:23;;;;;;;23.73;12.43;;;;;;;;;;7384264;19;20006;-71
2022/01/16 11:01:10;;;;;;;25.17;12.02;;;;;;;;;;7383942;19;20123;-74
2022/01/16 11:03:46;;;;;;;23.58;11.48;;;;;;;;;;7383679;19;20014;-71
2022/01/16 11:06:16;;;;;;;22.38;11.43;;;;;;;;;;7381938;19;20468;-71
2022/01/16 11:09:03;;;;;;;25.92;12.80;;;;;;;;;;7382403;19;20015;-71
2022/01/16 11:11:28;;;;;;;26.40;12.15;;;;;;;;;;7382702;19;20377;-71
2022/01/16 11:13:56;;;;;;;20.17;10.18;;;;;;;;;;7383996;19;20047;-71
2022/01/16 11:16:23;;;;;;;21.58;11.00;;;;;;;;;;7381604;19;20014;-71
2022/01/16 11:18:51;;;;;;;24.75;12.25;;;;;;;;;;7382361;19;20450;-71
2022/01/16 11:21:27;;;;;;;22.90;10.25;;;;;;;;;;7380410;19;20014;-71
2022/01/16 11:26:21;;;;;;;21.98;11.65;;;;;;;;;;7381455;19;20034;-73
2022/01/16 11:28:47;;;;;;;21.40;11.20;;;;;;;;;;7381060;19;20025;-71
2022/01/16 11:31:14;;;;;;;19.58;10.55;;;;;;;;;;7379412;19;20011;-71
2022/01/16 11:33:40;;;;;;;19.83;10.68;;;;;;;;;;7384135;19;20003;-71
2022/01/16 11:36:12;;;;;;;20.48;11.40;;;;;;;;;;7384033;19;20018;-71
2022/01/16 11:38:49;;;;;;;20.67;11.70;;;;;;;;;;7380486;19;20484;-71
2022/01/16 11:41:18;;;;;;;22.80;11.82;;;;;;;;;;7381241;19;20014;-71
2022/01/16 11:43:49;;;;;;;24.02;11.77;;;;;;;;;;7381625;19;20014;-71
2022/01/16 11:46:17;;;;;;;18.30;10.00;;;;;;;;;;7381617;19;20026;-71
2022/01/16 11:48:50;;;;;;;20.85;11.25;;;;;;;;;;7379380;19;20093;-71
2022/01/16 11:51:34;;;;;;;24.77;12.60;;;;;;;;;;7380177;19;20129;-71
2022/01/16 11:54:20;;;;;;;23.27;11.75;;;;;;;;;;7382559;19;20007;-71
2022/01/16 11:56:46;;;;;;;21.25;11.30;;;;;;;;;;7380155;19;20106;-71
2022/01/16 11:59:46;;;;;;;21.88;10.73;;;;;;;;;;7380100;19;20097;-71
2022/01/16 12:02:12;;;;;;;21.75;11.40;;;;;;;;;;7376704;19;20731;-71
2022/01/16 12:04:50;;;;;;;23.85;11.20;;;;;;;;;;7380634;19;20007;-71
2022/01/16 12:07:19;;;;;;;25.35;11.68;;;;;;;;;;7379196;19;20022;-71
2022/01/16 12:12:13;;;;;;;21.45;10.20;;;;;;;;;;7378792;19;19987;-71
2022/01/16 12:14:56;;;;;;;19.15;10.55;;;;;;;;;;7380324;19;20010;-71
2022/01/16 12:17:40;;;;;;;18.98;10.57;;;;;;;;;;7379592;19;20015;-71
2022/01/16 12:20:11;;;;;;;21.38;11.15;;;;;;;;;;7379286;19;20014;-71
2022/01/16 12:22:47;;;;;;;21.35;11.02;;;;;;;;;;7378580;19;20022;-71
2022/01/16 12:25:16;;;;;;;18.67;10.30;;;;;;;;;;7381061;19;20022;-71
2022/01/16 12:27:48;;;;;;;19.77;10.13;;;;;;;;;;7379029;19;20021;-71
2022/01/16 12:30:20;;;;;;;21.60;11.48;;;;;;;;;;7378596;19;20015;-71
2022/01/16 12:32:53;;;;;;;17.90;10.00;;;;;;;;;;7379701;19;20487;-71
2022/01/16 12:35:50;;;;;;;18.98;10.32;;;;;;;;;;7387803;19;20500;-71
2022/01/16 12:38:19;;;;;;;16.35;8.90;;;;;;;;;;7386436;19;20138;-71
2022/01/16 12:41:03;;;;;;;21.20;10.75;;;;;;;;;;7387893;19;20115;-71
2022/01/16 12:43:39;;;;;;;22.70;10.70;;;;;;;;;;7386895;19;20373;-71
2022/01/16 12:46:05;;;;;;;19.23;10.38;;;;;;;;;;7389430;19;19995;-72
2022/01/16 12:48:31;;;;;;;17.35;10.65;;;;;;;;;;7384791;19;20015;-71
2022/01/16 12:51:05;;;;;;;17.33;9.80;;;;;;;;;;7387795;19;20017;-71
2022/01/16 12:53:42;;;;;;;21.05;11.57;;;;;;;;;;7387181;19;20126;-71
2022/01/16 12:56:21;;;;;;;18.75;9.52;;;;;;;;;;7390343;19;19996;-72
2022/01/16 12:58:48;;;;;;;21.63;11.00;;;;;;;;;;7385534;19;20333;-74
2022/01/16 13:01:13;;;;;;;18.85;10.93;;;;;;;;;;7388780;19;20013;-71
2022/01/16 13:03:42;;;;;;;18.88;10.75;;;;;;;;;;7384841;19;20101;-71
2022/01/16 13:06:28;;;;;;;20.02;10.65;;;;;;;;;;7387944;19;20006;-71
2022/01/16 13:09:07;;;;;;;;;;;;;;;;;;7386392;19;20013;-71
2022/01/16 13:11:43;;;;;;;18.35;9.13;;;;;;;;;;7385695;19;19922;-71
2022/01/16 13:14:11;;;;;;;16.67;9.48;;;;;;;;;;7387045;19;20010;-71
2022/01/16 13:16:48;;;;;;;21.73;11.82;;;;;;;;;;7384855;19;20040;-71
2022/01/16 13:19:22;;;;;;;21.75;11.35;;;;;;;;;;7384563;19;20014;-72
2022/01/16 13:24:26;;;;;;;22.17;11.60;;;;;;;;;;7387747;19;19986;-71
2022/01/16 13:26:51;;;;;;;21.60;11.20;;;;;;;;;;7386463;19;20010;-71
2022/01/16 13:29:18;;;;;;;21.05;10.98;;;;;;;;;;7385727;19;20022;-71
2022/01/16 13:31:44;;;;;;;20.83;11.20;;;;;;;;;;7385007;19;20051;-71
2022/01/16 13:34:16;;;;;;;20.52;11.05;;;;;;;;;;7387142;19;20032;-71
2022/01/16 13:36:53;;;;;;;19.95;10.10;;;;;;;;;;7386412;19;20367;-71
2022/01/16 13:39:39;;;;;;;21.30;10.88;;;;;;;;;;7384802;19;20371;-71
2022/01/16 13:42:23;;;;;;;20.23;10.15;;;;;;;;;;7384719;19;19999;-71
2022/01/16 13:44:48;;;;;;;20.25;10.95;;;;;;;;;;7385283;19;20084;-71
2022/01/16 13:47:22;;;;;;;18.80;10.30;;;;;;;;;;7382765;19;20399;-71
2022/01/16 13:49:51;;;;;;;18.00;9.73;;;;;;;;;;7384099;19;20372;-71
2022/01/16 13:52:25;;;;;;;18.38;10.80;;;;;;;;;;7382258;19;20321;-71
2022/01/16 13:55:06;;;;;;;21.92;10.68;;;;;;;;;;7386455;19;20014;-71
2022/01/16 13:57:33;;;;;;;18.95;10.32;;;;;;;;;;7384347;19;20002;-71
2022/01/16 14:00:00;;;;;;;22.65;10.63;;;;;;;;;;7383382;19;20495;-71
2022/01/16 14:02:26;;;;;;;19.15;10.50;;;;;;;;;;7383946;19;20002;-71
2022/01/16 14:04:52;;;;;;;17.25;9.48;;;;;;;;;;7385898;19;20025;-71
2022/01/16 14:07:22;;;;;;;19.60;9.93;;;;;;;;;;7383877;19;20424;-71
2022/01/16 14:09:48;;;;;;;18.95;9.52;;;;;;;;;;7382456;19;20535;-71
2022/01/16 14:12:13;;;;;;;17.98;10.45;;;;;;;;;;7381485;19;20018;-71
2022/01/16 14:14:39;;;;;;;20.77;9.23;;;;;;;;;;7385320;19;20021;-71
2022/01/16 14:19:53;;;;;;;17.75;9.70;;;;;;;;;;7383098;19;20109;-71
2022/01/16 14:22:20;;;;;;;18.45;9.80;;;;;;;;;;7383861;19;20010;-71
2022/01/16 14:24:50;;;;;;;17.23;10.27;;;;;;;;;;7384566;19;20011;-71
2022/01/16 14:27:19;;;;;;;17.52;9.82;;;;;;;;;;7383538;19;20062;-71
2022/01/16 14:29:47;;;;;;;19.27;10.32;;;;;;;;;;7382614;19;20097;-71
2022/01/16 14:32:14;;;;;;;19.70;10.27;;;;;;;;;;7381822;19;20317;-71
2022/01/16 14:34:40;;;;;;;20.77;10.98;;;;;;;;;;7383851;19;20476;-71
2022/01/16 14:37:10;;;;;;;18.67;10.73;;;;;;;;;;7384569;19;20028;-71
2022/01/16 14:39:36;;;;;;;19.38;10.75;;;;;;;;;;7379574;19;20014;-71
2022/01/16 14:42:04;;;;;;;20.35;9.93;;;;;;;;;;7385210;19;19995;-71
2022/01/16 14:44:31;;;;;;;20.15;11.35;;;;;;;;;;7382982;19;20442;-71
2022/01/16 14:47:00;;;;;;;20.48;10.60;;;;;;;;;;7383733;19;20412;-71
2022/01/16 14:49:26;;;;;;;20.77;11.05;;;;;;;;;;7381643;19;20345;-71
2022/01/16 14:51:52;;;;;;;21.52;11.40;;;;;;;;;;7382669;19;20452;-71
2022/01/16 14:54:17;;;;;;;21.63;10.93;;;;;;;;;;7383691;19;20409;-72
2022/01/16 14:56:43;;;;;;;22.23;11.50;;;;;;;;;;7384502;19;20034;-71
2022/01/16 14:59:09;;;;;;;24.52;11.20;;;;;;;;;;7380988;19;19999;-71
2022/01/16 15:01:35;;;;;;;22.08;10.50;;;;;;;;;;7383694;19;20030;-71
2022/01/16 15:04:01;;;;;;;19.15;10.50;;;;;;;;;;7382878;19;20009;-71
2022/01/16 15:06:28;;;;;;;22.83;11.48;;;;;;;;;;7382063;19;20126;-71
2022/01/16 15:08:57;;;;;;;22.70;10.95;;;;;;;;;;7380777;19;20002;-71
2022/01/16 15:11:23;;;;;;;18.88;10.30;;;;;;;;;;7383036;19;20014;-71
2022/01/16 15:13:48;;;;;;;17.00;10.23;;;;;;;;;;7381819;19;20405;-71
2022/01/16 15:16:22;;;;;;;21.90;11.07;;;;;;;;;;7382471;19;20011;-71
2022/01/16 15:18:48;;;;;;;23.35;11.15;;;;;;;;;;7381302;19;20343;-71
2022/01/16 15:21:15;;;;;;;23.65;11.02;;;;;;;;;;7383835;19;20437;-71